Hlavní strana
METAR-TAF:

METAR-TAF

Letiště :

Plantation Airpark

Sylvania, Georgie, Spojené státy americké

zeměpisná šířka: 32-38-43N, zeměpisná délka: 081-35-47W, výška: 57 m

Aktuální stav počasí

Zpráva byla vytvořena před 15 minutami, v 10:55 UTC
Bezvětří
Teplota 23°C
Vlhkost vzduchu 83%
Tlak 1021 hPa
Viditelnost: 16.1 km
Polojasno ve výšce 9000 ft

METAR: KJYL 261055Z AUTO 00000KT 10SM SCT090 23/20 A3014 RMK AO2 T02330198

Čas: 07:10 (11:10 UTC)


TAF: chybějící

Stav a předpovědi počasí z více než 4 000 letišť (zprávy METAR a TAF).

Červené a žluté tečky na mapě představují dostupné meteorologické stanice.

Když kurzor umístíte na tečku, zobrazí se název stanice.

Pak kliknutím zobrazíte stav a předpověď počasí.

Chcete-li změnit mapu, kliknutím na zelené tlačítko se znaménkem +mapu přiblížíte, kliknutím na zelené tlačítko se znaménkem – mapu oddálíte a kliknutím na zelené šipky přejdete na sousední mapy.


METAR-TAF: